sensor_id;sensor_type;location;lat;lon;timestamp;P1;durP1;ratioP1;P2;durP2;ratioP2
29452;SDS011;16424;50.956;5.320;2022-09-06T00:01:17;5.43;;;2.85;;
29452;SDS011;16424;50.956;5.320;2022-09-06T00:03:42;7.70;;;4.18;;
29452;SDS011;16424;50.956;5.320;2022-09-06T00:06:09;6.68;;;3.90;;
29452;SDS011;16424;50.956;5.320;2022-09-06T00:08:37;8.63;;;2.92;;
29452;SDS011;16424;50.956;5.320;2022-09-06T00:11:03;7.25;;;3.38;;
29452;SDS011;16424;50.956;5.320;2022-09-06T00:13:30;6.97;;;3.38;;
29452;SDS011;16424;50.956;5.320;2022-09-06T00:15:56;4.72;;;3.67;;
29452;SDS011;16424;50.956;5.320;2022-09-06T00:18:31;8.82;;;4.43;;
29452;SDS011;16424;50.956;5.320;2022-09-06T00:20:56;11.50;;;4.53;;
29452;SDS011;16424;50.956;5.320;2022-09-06T00:23:22;9.20;;;4.57;;
29452;SDS011;16424;50.956;5.320;2022-09-06T00:25:47;7.65;;;4.25;;
29452;SDS011;16424;50.956;5.320;2022-09-06T00:28:13;8.30;;;4.90;;
29452;SDS011;16424;50.956;5.320;2022-09-06T00:30:40;7.97;;;3.72;;
29452;SDS011;16424;50.956;5.320;2022-09-06T00:33:05;6.93;;;3.83;;
29452;SDS011;16424;50.956;5.320;2022-09-06T00:35:31;7.30;;;4.43;;
29452;SDS011;16424;50.956;5.320;2022-09-06T00:37:57;6.35;;;4.05;;
29452;SDS011;16424;50.956;5.320;2022-09-06T00:40:24;7.82;;;4.10;;
29452;SDS011;16424;50.956;5.320;2022-09-06T00:42:51;6.75;;;3.67;;
29452;SDS011;16424;50.956;5.320;2022-09-06T00:45:16;6.00;;;3.63;;
29452;SDS011;16424;50.956;5.320;2022-09-06T00:47:43;9.38;;;3.67;;
29452;SDS011;16424;50.956;5.320;2022-09-06T00:50:09;6.25;;;3.72;;
29452;SDS011;16424;50.956;5.320;2022-09-06T00:52:37;4.35;;;3.25;;
29452;SDS011;16424;50.956;5.320;2022-09-06T00:55:04;4.22;;;3.03;;
29452;SDS011;16424;50.956;5.320;2022-09-06T00:57:31;6.78;;;3.00;;
29452;SDS011;16424;50.956;5.320;2022-09-06T00:59:57;3.72;;;2.85;;
29452;SDS011;16424;50.956;5.320;2022-09-06T01:02:24;8.43;;;3.45;;
29452;SDS011;16424;50.956;5.320;2022-09-06T01:04:50;4.05;;;2.75;;
29452;SDS011;16424;50.956;5.320;2022-09-06T01:07:24;4.53;;;2.78;;
29452;SDS011;16424;50.956;5.320;2022-09-06T01:15:32;4.65;;;3.10;;
29452;SDS011;16424;50.956;5.320;2022-09-06T01:29:32;3.88;;;2.88;;
29452;SDS011;16424;50.956;5.320;2022-09-06T01:34:51;5.20;;;3.20;;
29452;SDS011;16424;50.956;5.320;2022-09-06T01:37:22;3.70;;;2.88;;
29452;SDS011;16424;50.956;5.320;2022-09-06T01:39:48;3.95;;;2.78;;
29452;SDS011;16424;50.956;5.320;2022-09-06T01:42:26;5.13;;;2.97;;
29452;SDS011;16424;50.956;5.320;2022-09-06T01:44:57;5.80;;;3.08;;
29452;SDS011;16424;50.956;5.320;2022-09-06T01:47:39;6.68;;;4.43;;
29452;SDS011;16424;50.956;5.320;2022-09-06T01:58:21;7.60;;;4.75;;
29452;SDS011;16424;50.956;5.320;2022-09-06T02:01:13;4.95;;;4.45;;
29452;SDS011;16424;50.956;5.320;2022-09-06T02:06:57;5.88;;;4.38;;
29452;SDS011;16424;50.956;5.320;2022-09-06T02:09:26;5.22;;;4.10;;
29452;SDS011;16424;50.956;5.320;2022-09-06T02:11:58;6.70;;;3.95;;
29452;SDS011;16424;50.956;5.320;2022-09-06T02:17:03;5.45;;;4.32;;
29452;SDS011;16424;50.956;5.320;2022-09-06T02:19:34;7.63;;;3.95;;
29452;SDS011;16424;50.956;5.320;2022-09-06T02:22:05;8.13;;;4.40;;
29452;SDS011;16424;50.956;5.320;2022-09-06T02:24:34;5.30;;;4.60;;
29452;SDS011;16424;50.956;5.320;2022-09-06T02:27:04;8.55;;;4.75;;
29452;SDS011;16424;50.956;5.320;2022-09-06T02:29:30;6.47;;;4.72;;
29452;SDS011;16424;50.956;5.320;2022-09-06T02:32:01;11.43;;;5.05;;
29452;SDS011;16424;50.956;5.320;2022-09-06T02:34:38;8.35;;;5.88;;
29452;SDS011;16424;50.956;5.320;2022-09-06T02:37:05;8.68;;;5.30;;
29452;SDS011;16424;50.956;5.320;2022-09-06T02:39:31;9.23;;;5.65;;
29452;SDS011;16424;50.956;5.320;2022-09-06T02:41:57;6.22;;;5.63;;
29452;SDS011;16424;50.956;5.320;2022-09-06T02:44:24;14.55;;;5.82;;
29452;SDS011;16424;50.956;5.320;2022-09-06T02:46:50;8.77;;;5.45;;
29452;SDS011;16424;50.956;5.320;2022-09-06T02:49:15;5.88;;;5.28;;
29452;SDS011;16424;50.956;5.320;2022-09-06T02:51:41;9.65;;;5.53;;
29452;SDS011;16424;50.956;5.320;2022-09-06T02:54:07;9.00;;;5.47;;
29452;SDS011;16424;50.956;5.320;2022-09-06T02:56:33;7.55;;;5.45;;
29452;SDS011;16424;50.956;5.320;2022-09-06T02:59:00;13.00;;;6.13;;
29452;SDS011;16424;50.956;5.320;2022-09-06T03:01:26;6.82;;;5.22;;
29452;SDS011;16424;50.956;5.320;2022-09-06T03:03:52;9.32;;;6.68;;
29452;SDS011;16424;50.956;5.320;2022-09-06T03:06:18;9.13;;;5.80;;
29452;SDS011;16424;50.956;5.320;2022-09-06T03:08:43;9.10;;;5.80;;
29452;SDS011;16424;50.956;5.320;2022-09-06T03:11:09;8.52;;;5.63;;
29452;SDS011;16424;50.956;5.320;2022-09-06T03:13:35;9.32;;;5.50;;
29452;SDS011;16424;50.956;5.320;2022-09-06T03:16:00;10.77;;;6.30;;
29452;SDS011;16424;50.956;5.320;2022-09-06T03:18:27;9.73;;;5.90;;
29452;SDS011;16424;50.956;5.320;2022-09-06T03:20:54;9.32;;;5.80;;
29452;SDS011;16424;50.956;5.320;2022-09-06T03:23:22;7.25;;;5.88;;
29452;SDS011;16424;50.956;5.320;2022-09-06T03:25:49;10.07;;;6.45;;
29452;SDS011;16424;50.956;5.320;2022-09-06T03:28:15;8.75;;;5.70;;
29452;SDS011;16424;50.956;5.320;2022-09-06T03:30:46;11.38;;;5.82;;
29452;SDS011;16424;50.956;5.320;2022-09-06T03:33:12;8.70;;;5.57;;
29452;SDS011;16424;50.956;5.320;2022-09-06T03:35:39;10.32;;;6.15;;
29452;SDS011;16424;50.956;5.320;2022-09-06T03:38:10;12.73;;;5.82;;
29452;SDS011;16424;50.956;5.320;2022-09-06T03:40:36;8.65;;;5.53;;
29452;SDS011;16424;50.956;5.320;2022-09-06T03:43:02;12.65;;;5.95;;
29452;SDS011;16424;50.956;5.320;2022-09-06T03:45:27;7.28;;;5.43;;
29452;SDS011;16424;50.956;5.320;2022-09-06T03:47:53;13.57;;;5.90;;
29452;SDS011;16424;50.956;5.320;2022-09-06T03:50:18;7.80;;;5.57;;
29452;SDS011;16424;50.956;5.320;2022-09-06T03:52:44;8.23;;;5.68;;
29452;SDS011;16424;50.956;5.320;2022-09-06T03:55:10;9.15;;;5.63;;
29452;SDS011;16424;50.956;5.320;2022-09-06T03:57:36;7.93;;;4.85;;
29452;SDS011;16424;50.956;5.320;2022-09-06T04:00:02;11.40;;;5.60;;
29452;SDS011;16424;50.956;5.320;2022-09-06T04:02:28;10.90;;;6.10;;
29452;SDS011;16424;50.956;5.320;2022-09-06T04:04:53;11.05;;;7.03;;
29452;SDS011;16424;50.956;5.320;2022-09-06T04:07:20;8.32;;;6.18;;
29452;SDS011;16424;50.956;5.320;2022-09-06T04:09:46;8.85;;;6.03;;
29452;SDS011;16424;50.956;5.320;2022-09-06T04:12:12;13.70;;;6.45;;
29452;SDS011;16424;50.956;5.320;2022-09-06T04:14:38;11.32;;;6.82;;
29452;SDS011;16424;50.956;5.320;2022-09-06T04:17:03;10.35;;;6.65;;
29452;SDS011;16424;50.956;5.320;2022-09-06T04:19:29;9.75;;;6.97;;
29452;SDS011;16424;50.956;5.320;2022-09-06T04:21:54;12.20;;;7.25;;
29452;SDS011;16424;50.956;5.320;2022-09-06T04:24:20;18.02;;;8.55;;
29452;SDS011;16424;50.956;5.320;2022-09-06T04:26:46;17.48;;;7.50;;
29452;SDS011;16424;50.956;5.320;2022-09-06T04:29:11;10.93;;;7.82;;
29452;SDS011;16424;50.956;5.320;2022-09-06T04:31:37;13.43;;;7.57;;
29452;SDS011;16424;50.956;5.320;2022-09-06T04:34:03;9.32;;;6.95;;
29452;SDS011;16424;50.956;5.320;2022-09-06T04:36:28;10.73;;;7.53;;
29452;SDS011;16424;50.956;5.320;2022-09-06T04:38:54;10.15;;;7.32;;
29452;SDS011;16424;50.956;5.320;2022-09-06T04:41:20;16.60;;;8.50;;
29452;SDS011;16424;50.956;5.320;2022-09-06T04:43:45;8.68;;;6.47;;
29452;SDS011;16424;50.956;5.320;2022-09-06T04:48:49;11.18;;;7.53;;
29452;SDS011;16424;50.956;5.320;2022-09-06T04:51:15;11.52;;;7.30;;
29452;SDS011;16424;50.956;5.320;2022-09-06T04:53:41;11.18;;;8.23;;
29452;SDS011;16424;50.956;5.320;2022-09-06T04:56:09;11.10;;;7.72;;
29452;SDS011;16424;50.956;5.320;2022-09-06T04:58:40;14.13;;;7.70;;
29452;SDS011;16424;50.956;5.320;2022-09-06T05:01:06;10.02;;;7.13;;
29452;SDS011;16424;50.956;5.320;2022-09-06T05:03:31;13.73;;;7.80;;
29452;SDS011;16424;50.956;5.320;2022-09-06T05:06:07;11.77;;;7.75;;
29452;SDS011;16424;50.956;5.320;2022-09-06T05:08:38;9.65;;;7.43;;
29452;SDS011;16424;50.956;5.320;2022-09-06T05:11:05;10.90;;;7.00;;
29452;SDS011;16424;50.956;5.320;2022-09-06T05:13:33;14.13;;;7.35;;
29452;SDS011;16424;50.956;5.320;2022-09-06T05:16:00;12.05;;;7.68;;
29452;SDS011;16424;50.956;5.320;2022-09-06T05:18:26;11.70;;;8.43;;
29452;SDS011;16424;50.956;5.320;2022-09-06T05:20:52;16.05;;;8.65;;
29452;SDS011;16424;50.956;5.320;2022-09-06T05:23:19;9.32;;;7.97;;
29452;SDS011;16424;50.956;5.320;2022-09-06T05:25:45;12.20;;;8.10;;
29452;SDS011;16424;50.956;5.320;2022-09-06T05:28:11;14.48;;;8.48;;
29452;SDS011;16424;50.956;5.320;2022-09-06T05:30:37;8.18;;;7.35;;
29452;SDS011;16424;50.956;5.320;2022-09-06T05:33:02;11.43;;;7.65;;
29452;SDS011;16424;50.956;5.320;2022-09-06T05:35:28;11.35;;;7.68;;
29452;SDS011;16424;50.956;5.320;2022-09-06T05:37:54;8.57;;;7.65;;
29452;SDS011;16424;50.956;5.320;2022-09-06T05:40:20;11.70;;;7.95;;
29452;SDS011;16424;50.956;5.320;2022-09-06T05:42:46;10.30;;;7.68;;
29452;SDS011;16424;50.956;5.320;2022-09-06T05:45:11;12.18;;;7.57;;
29452;SDS011;16424;50.956;5.320;2022-09-06T05:47:37;13.88;;;7.65;;
29452;SDS011;16424;50.956;5.320;2022-09-06T05:50:03;10.85;;;7.10;;
29452;SDS011;16424;50.956;5.320;2022-09-06T05:52:30;13.48;;;7.15;;
29452;SDS011;16424;50.956;5.320;2022-09-06T05:54:57;8.35;;;6.35;;
29452;SDS011;16424;50.956;5.320;2022-09-06T05:57:23;8.32;;;5.00;;
29452;SDS011;16424;50.956;5.320;2022-09-06T05:59:49;8.77;;;4.88;;
29452;SDS011;16424;50.956;5.320;2022-09-06T06:02:16;5.97;;;4.18;;
29452;SDS011;16424;50.956;5.320;2022-09-06T06:04:41;5.85;;;4.07;;
29452;SDS011;16424;50.956;5.320;2022-09-06T06:07:07;12.60;;;4.63;;
29452;SDS011;16424;50.956;5.320;2022-09-06T06:09:33;5.93;;;4.28;;
29452;SDS011;16424;50.956;5.320;2022-09-06T06:11:58;7.57;;;4.50;;
29452;SDS011;16424;50.956;5.320;2022-09-06T06:14:24;7.68;;;3.70;;
29452;SDS011;16424;50.956;5.320;2022-09-06T06:16:50;19.15;;;3.83;;
29452;SDS011;16424;50.956;5.320;2022-09-06T06:19:15;9.02;;;3.95;;
29452;SDS011;16424;50.956;5.320;2022-09-06T06:21:41;7.90;;;2.80;;
29452;SDS011;16424;50.956;5.320;2022-09-06T06:24:07;6.50;;;2.97;;
29452;SDS011;16424;50.956;5.320;2022-09-06T06:26:33;6.20;;;3.35;;
29452;SDS011;16424;50.956;5.320;2022-09-06T06:29:00;9.27;;;3.60;;
29452;SDS011;16424;50.956;5.320;2022-09-06T06:31:29;4.00;;;3.10;;
29452;SDS011;16424;50.956;5.320;2022-09-06T06:33:56;6.90;;;3.28;;
29452;SDS011;16424;50.956;5.320;2022-09-06T06:36:23;6.13;;;2.90;;
29452;SDS011;16424;50.956;5.320;2022-09-06T06:38:50;14.30;;;3.67;;
29452;SDS011;16424;50.956;5.320;2022-09-06T06:41:19;9.88;;;3.08;;
29452;SDS011;16424;50.956;5.320;2022-09-06T06:43:49;6.65;;;2.78;;
29452;SDS011;16424;50.956;5.320;2022-09-06T06:46:16;10.07;;;3.08;;
29452;SDS011;16424;50.956;5.320;2022-09-06T06:48:43;9.18;;;3.15;;
29452;SDS011;16424;50.956;5.320;2022-09-06T06:51:10;9.20;;;2.53;;
29452;SDS011;16424;50.956;5.320;2022-09-06T06:53:46;8.95;;;2.78;;
29452;SDS011;16424;50.956;5.320;2022-09-06T06:56:23;8.10;;;2.67;;
29452;SDS011;16424;50.956;5.320;2022-09-06T06:58:56;4.90;;;2.75;;
29452;SDS011;16424;50.956;5.320;2022-09-06T07:01:23;5.05;;;2.95;;
29452;SDS011;16424;50.956;5.320;2022-09-06T07:03:50;3.45;;;2.47;;
29452;SDS011;16424;50.956;5.320;2022-09-06T07:06:16;6.43;;;2.35;;
29452;SDS011;16424;50.956;5.320;2022-09-06T07:08:43;6.22;;;2.67;;
29452;SDS011;16424;50.956;5.320;2022-09-06T07:11:10;2.83;;;2.10;;
29452;SDS011;16424;50.956;5.320;2022-09-06T07:13:37;4.68;;;2.08;;
29452;SDS011;16424;50.956;5.320;2022-09-06T07:16:06;4.65;;;2.00;;
29452;SDS011;16424;50.956;5.320;2022-09-06T07:18:43;6.93;;;2.08;;
29452;SDS011;16424;50.956;5.320;2022-09-06T07:21:13;4.53;;;1.80;;
29452;SDS011;16424;50.956;5.320;2022-09-06T07:23:40;4.43;;;2.00;;
29452;SDS011;16424;50.956;5.320;2022-09-06T07:26:06;5.32;;;1.90;;
29452;SDS011;16424;50.956;5.320;2022-09-06T07:28:37;5.78;;;1.85;;
29452;SDS011;16424;50.956;5.320;2022-09-06T07:31:02;8.00;;;1.50;;
29452;SDS011;16424;50.956;5.320;2022-09-06T07:33:28;3.90;;;2.08;;
29452;SDS011;16424;50.956;5.320;2022-09-06T07:35:58;4.13;;;1.60;;
29452;SDS011;16424;50.956;5.320;2022-09-06T07:38:25;2.92;;;1.67;;
29452;SDS011;16424;50.956;5.320;2022-09-06T07:40:53;6.35;;;2.25;;
29452;SDS011;16424;50.956;5.320;2022-09-06T07:43:22;2.80;;;1.70;;
29452;SDS011;16424;50.956;5.320;2022-09-06T07:45:56;4.03;;;1.30;;
29452;SDS011;16424;50.956;5.320;2022-09-06T07:48:33;3.87;;;1.73;;
29452;SDS011;16424;50.956;5.320;2022-09-06T07:53:37;5.95;;;1.27;;
29452;SDS011;16424;50.956;5.320;2022-09-06T07:56:04;3.90;;;1.33;;
29452;SDS011;16424;50.956;5.320;2022-09-06T07:58:32;2.97;;;1.42;;
29452;SDS011;16424;50.956;5.320;2022-09-06T08:03:55;4.80;;;1.85;;
29452;SDS011;16424;50.956;5.320;2022-09-06T08:06:22;1.85;;;1.20;;
29452;SDS011;16424;50.956;5.320;2022-09-06T08:08:48;3.03;;;0.82;;
29452;SDS011;16424;50.956;5.320;2022-09-06T08:11:14;3.95;;;1.35;;
29452;SDS011;16424;50.956;5.320;2022-09-06T08:13:41;4.75;;;1.20;;
29452;SDS011;16424;50.956;5.320;2022-09-06T08:16:07;5.20;;;1.00;;
29452;SDS011;16424;50.956;5.320;2022-09-06T08:18:34;1.45;;;0.70;;
29452;SDS011;16424;50.956;5.320;2022-09-06T08:21:08;3.13;;;0.95;;
29452;SDS011;16424;50.956;5.320;2022-09-06T08:23:35;3.63;;;1.05;;
29452;SDS011;16424;50.956;5.320;2022-09-06T08:26:06;2.75;;;1.02;;
29452;SDS011;16424;50.956;5.320;2022-09-06T08:28:32;3.05;;;1.10;;
29452;SDS011;16424;50.956;5.320;2022-09-06T08:31:11;3.38;;;1.00;;
29452;SDS011;16424;50.956;5.320;2022-09-06T08:33:39;3.97;;;1.00;;
29452;SDS011;16424;50.956;5.320;2022-09-06T08:36:06;4.22;;;0.90;;
29452;SDS011;16424;50.956;5.320;2022-09-06T08:38:32;4.43;;;1.33;;
29452;SDS011;16424;50.956;5.320;2022-09-06T08:41:09;4.78;;;1.02;;
29452;SDS011;16424;50.956;5.320;2022-09-06T08:43:49;5.85;;;1.00;;
29452;SDS011;16424;50.956;5.320;2022-09-06T08:46:19;3.70;;;1.10;;
29452;SDS011;16424;50.956;5.320;2022-09-06T08:48:53;2.13;;;0.93;;
29452;SDS011;16424;50.956;5.320;2022-09-06T08:54:05;3.55;;;1.00;;
29452;SDS011;16424;50.956;5.320;2022-09-06T08:56:45;1.98;;;0.93;;
29452;SDS011;16424;50.956;5.320;2022-09-06T08:59:20;4.03;;;1.10;;
29452;SDS011;16424;50.956;5.320;2022-09-06T09:04:33;2.17;;;1.20;;
29452;SDS011;16424;50.956;5.320;2022-09-06T09:07:29;4.05;;;1.15;;
29452;SDS011;16424;50.956;5.320;2022-09-06T09:09:51;1.45;;;0.80;;
29452;SDS011;16424;50.956;5.320;2022-09-06T09:12:22;3.53;;;1.08;;
29452;SDS011;16424;50.956;5.320;2022-09-06T09:14:50;3.45;;;0.88;;
29452;SDS011;16424;50.956;5.320;2022-09-06T09:17:22;7.13;;;1.42;;
29452;SDS011;16424;50.956;5.320;2022-09-06T09:19:51;4.00;;;0.98;;
29452;SDS011;16424;50.956;5.320;2022-09-06T09:22:17;5.10;;;1.00;;
29452;SDS011;16424;50.956;5.320;2022-09-06T09:24:44;5.65;;;1.48;;
29452;SDS011;16424;50.956;5.320;2022-09-06T09:27:12;4.45;;;1.30;;
29452;SDS011;16424;50.956;5.320;2022-09-06T09:30:03;3.30;;;1.20;;
29452;SDS011;16424;50.956;5.320;2022-09-06T09:32:34;3.47;;;1.02;;
29452;SDS011;16424;50.956;5.320;2022-09-06T09:35:14;5.68;;;1.20;;
29452;SDS011;16424;50.956;5.320;2022-09-06T09:37:47;3.25;;;1.13;;
29452;SDS011;16424;50.956;5.320;2022-09-06T09:42:51;6.25;;;1.40;;
29452;SDS011;16424;50.956;5.320;2022-09-06T09:45:23;3.20;;;1.08;;
29452;SDS011;16424;50.956;5.320;2022-09-06T09:47:54;2.92;;;1.10;;
29452;SDS011;16424;50.956;5.320;2022-09-06T09:52:53;3.67;;;1.17;;
29452;SDS011;16424;50.956;5.320;2022-09-06T09:55:20;3.08;;;1.10;;
29452;SDS011;16424;50.956;5.320;2022-09-06T09:57:48;3.25;;;1.10;;
29452;SDS011;16424;50.956;5.320;2022-09-06T10:00:29;3.88;;;1.80;;
29452;SDS011;16424;50.956;5.320;2022-09-06T10:02:57;2.80;;;1.05;;
29452;SDS011;16424;50.956;5.320;2022-09-06T10:05:23;3.67;;;1.13;;
29452;SDS011;16424;50.956;5.320;2022-09-06T10:10:26;2.88;;;0.98;;
29452;SDS011;16424;50.956;5.320;2022-09-06T10:13:06;2.85;;;1.33;;
29452;SDS011;16424;50.956;5.320;2022-09-06T10:15:33;6.07;;;1.73;;
29452;SDS011;16424;50.956;5.320;2022-09-06T10:18:00;2.47;;;1.10;;
29452;SDS011;16424;50.956;5.320;2022-09-06T10:20:41;2.35;;;1.00;;
29452;SDS011;16424;50.956;5.320;2022-09-06T10:23:15;3.13;;;1.20;;
29452;SDS011;16424;50.956;5.320;2022-09-06T10:26:02;2.85;;;1.10;;
29452;SDS011;16424;50.956;5.320;2022-09-06T10:28:33;6.80;;;1.20;;
29452;SDS011;16424;50.956;5.320;2022-09-06T10:39:59;4.68;;;1.58;;
29452;SDS011;16424;50.956;5.320;2022-09-06T10:48:12;9.45;;;1.33;;
29452;SDS011;16424;50.956;5.320;2022-09-06T10:56:11;5.77;;;1.17;;
29452;SDS011;16424;50.956;5.320;2022-09-06T10:58:50;2.72;;;1.60;;
29452;SDS011;16424;50.956;5.320;2022-09-06T11:01:32;3.60;;;1.10;;
29452;SDS011;16424;50.956;5.320;2022-09-06T11:04:09;4.35;;;1.17;;
29452;SDS011;16424;50.956;5.320;2022-09-06T11:06:44;2.97;;;1.05;;
29452;SDS011;16424;50.956;5.320;2022-09-06T11:09:21;2.42;;;1.13;;
29452;SDS011;16424;50.956;5.320;2022-09-06T11:14:20;3.45;;;1.30;;
29452;SDS011;16424;50.956;5.320;2022-09-06T11:16:55;3.63;;;1.00;;
29452;SDS011;16424;50.956;5.320;2022-09-06T11:19:26;3.42;;;1.10;;
29452;SDS011;16424;50.956;5.320;2022-09-06T11:27:45;4.40;;;1.17;;
29452;SDS011;16424;50.956;5.320;2022-09-06T11:30:16;7.50;;;1.48;;
29452;SDS011;16424;50.956;5.320;2022-09-06T11:32:46;4.25;;;1.27;;
29452;SDS011;16424;50.956;5.320;2022-09-06T11:35:25;2.03;;;1.10;;
29452;SDS011;16424;50.956;5.320;2022-09-06T11:38:36;2.80;;;1.20;;
29452;SDS011;16424;50.956;5.320;2022-09-06T11:41:00;2.22;;;1.17;;
29452;SDS011;16424;50.956;5.320;2022-09-06T11:43:47;6.47;;;1.20;;
29452;SDS011;16424;50.956;5.320;2022-09-06T11:51:43;8.80;;;0.95;;
29452;SDS011;16424;50.956;5.320;2022-09-06T11:56:41;3.65;;;1.30;;
29452;SDS011;16424;50.956;5.320;2022-09-06T12:01:40;3.72;;;1.30;;
29452;SDS011;16424;50.956;5.320;2022-09-06T12:04:34;5.03;;;1.30;;
29452;SDS011;16424;50.956;5.320;2022-09-06T12:07:29;4.20;;;1.38;;
29452;SDS011;16424;50.956;5.320;2022-09-06T12:09:56;5.18;;;1.17;;
29452;SDS011;16424;50.956;5.320;2022-09-06T12:15:22;1.90;;;1.10;;
29452;SDS011;16424;50.956;5.320;2022-09-06T12:17:52;5.80;;;1.10;;
29452;SDS011;16424;50.956;5.320;2022-09-06T12:25:59;4.30;;;0.98;;
29452;SDS011;16424;50.956;5.320;2022-09-06T12:28:50;4.68;;;1.50;;
29452;SDS011;16424;50.956;5.320;2022-09-06T12:31:37;2.80;;;1.35;;
29452;SDS011;16424;50.956;5.320;2022-09-06T12:34:23;3.28;;;1.42;;
29452;SDS011;16424;50.956;5.320;2022-09-06T12:36:57;2.53;;;1.10;;
29452;SDS011;16424;50.956;5.320;2022-09-06T12:39:26;1.40;;;0.70;;
29452;SDS011;16424;50.956;5.320;2022-09-06T12:41:56;2.88;;;1.30;;
29452;SDS011;16424;50.956;5.320;2022-09-06T12:46:54;2.88;;;1.10;;
29452;SDS011;16424;50.956;5.320;2022-09-06T12:49:27;4.20;;;1.55;;
29452;SDS011;16424;50.956;5.320;2022-09-06T12:52:04;2.75;;;0.77;;
29452;SDS011;16424;50.956;5.320;2022-09-06T12:54:31;5.13;;;1.17;;
29452;SDS011;16424;50.956;5.320;2022-09-06T12:57:10;2.42;;;1.20;;
29452;SDS011;16424;50.956;5.320;2022-09-06T12:59:38;2.45;;;0.90;;
29452;SDS011;16424;50.956;5.320;2022-09-06T13:02:12;3.25;;;1.10;;
29452;SDS011;16424;50.956;5.320;2022-09-06T13:04:46;3.70;;;0.88;;
29452;SDS011;16424;50.956;5.320;2022-09-06T13:07:16;3.13;;;1.10;;
29452;SDS011;16424;50.956;5.320;2022-09-06T13:09:44;2.30;;;1.08;;
29452;SDS011;16424;50.956;5.320;2022-09-06T13:12:17;4.28;;;1.50;;
29452;SDS011;16424;50.956;5.320;2022-09-06T13:14:54;2.97;;;1.10;;
29452;SDS011;16424;50.956;5.320;2022-09-06T13:17:26;3.30;;;1.55;;
29452;SDS011;16424;50.956;5.320;2022-09-06T13:19:53;2.30;;;1.02;;
29452;SDS011;16424;50.956;5.320;2022-09-06T13:25:15;3.72;;;1.40;;
29452;SDS011;16424;50.956;5.320;2022-09-06T13:27:42;6.35;;;0.90;;
29452;SDS011;16424;50.956;5.320;2022-09-06T13:30:19;4.25;;;1.65;;
29452;SDS011;16424;50.956;5.320;2022-09-06T13:32:55;6.93;;;1.25;;
29452;SDS011;16424;50.956;5.320;2022-09-06T13:35:21;2.75;;;0.95;;
29452;SDS011;16424;50.956;5.320;2022-09-06T13:37:48;4.32;;;1.05;;
29452;SDS011;16424;50.956;5.320;2022-09-06T13:43:08;2.65;;;1.10;;
29452;SDS011;16424;50.956;5.320;2022-09-06T13:45:36;2.22;;;1.10;;
29452;SDS011;16424;50.956;5.320;2022-09-06T13:48:02;2.45;;;0.93;;
29452;SDS011;16424;50.956;5.320;2022-09-06T13:50:28;2.55;;;1.20;;
29452;SDS011;16424;50.956;5.320;2022-09-06T13:52:53;4.00;;;1.10;;
29452;SDS011;16424;50.956;5.320;2022-09-06T13:55:20;7.65;;;1.52;;
29452;SDS011;16424;50.956;5.320;2022-09-06T13:57:48;1.35;;;0.90;;
29452;SDS011;16424;50.956;5.320;2022-09-06T14:00:14;1.65;;;0.77;;
29452;SDS011;16424;50.956;5.320;2022-09-06T14:02:42;4.43;;;1.05;;
29452;SDS011;16424;50.956;5.320;2022-09-06T14:05:08;4.45;;;0.85;;
29452;SDS011;16424;50.956;5.320;2022-09-06T14:07:33;1.98;;;1.42;;
29452;SDS011;16424;50.956;5.320;2022-09-06T14:09:59;2.63;;;1.20;;
29452;SDS011;16424;50.956;5.320;2022-09-06T14:12:25;2.97;;;1.38;;
29452;SDS011;16424;50.956;5.320;2022-09-06T14:14:51;3.33;;;1.60;;
29452;SDS011;16424;50.956;5.320;2022-09-06T14:17:20;3.03;;;0.90;;
29452;SDS011;16424;50.956;5.320;2022-09-06T14:19:45;3.17;;;1.00;;
29452;SDS011;16424;50.956;5.320;2022-09-06T14:22:12;5.72;;;1.23;;
29452;SDS011;16424;50.956;5.320;2022-09-06T14:24:37;4.45;;;1.13;;
29452;SDS011;16424;50.956;5.320;2022-09-06T14:27:03;2.97;;;1.17;;
29452;SDS011;16424;50.956;5.320;2022-09-06T14:29:31;1.73;;;0.90;;
29452;SDS011;16424;50.956;5.320;2022-09-06T14:31:58;2.30;;;1.05;;
29452;SDS011;16424;50.956;5.320;2022-09-06T14:34:24;6.18;;;1.10;;
29452;SDS011;16424;50.956;5.320;2022-09-06T14:36:49;2.80;;;1.10;;
29452;SDS011;16424;50.956;5.320;2022-09-06T14:39:16;1.88;;;0.65;;
29452;SDS011;16424;50.956;5.320;2022-09-06T14:41:41;3.20;;;0.85;;
29452;SDS011;16424;50.956;5.320;2022-09-06T14:44:07;2.92;;;0.80;;
29452;SDS011;16424;50.956;5.320;2022-09-06T14:46:33;1.83;;;1.10;;
29452;SDS011;16424;50.956;5.320;2022-09-06T14:49:00;4.32;;;0.90;;
29452;SDS011;16424;50.956;5.320;2022-09-06T14:51:30;3.20;;;1.00;;
29452;SDS011;16424;50.956;5.320;2022-09-06T14:54:03;2.85;;;0.73;;
29452;SDS011;16424;50.956;5.320;2022-09-06T14:56:31;1.48;;;0.90;;
29452;SDS011;16424;50.956;5.320;2022-09-06T14:58:57;4.70;;;1.17;;
29452;SDS011;16424;50.956;5.320;2022-09-06T15:01:25;1.38;;;0.88;;
29452;SDS011;16424;50.956;5.320;2022-09-06T15:03:53;1.10;;;0.80;;
29452;SDS011;16424;50.956;5.320;2022-09-06T15:06:21;2.40;;;0.98;;
29452;SDS011;16424;50.956;5.320;2022-09-06T15:08:48;5.78;;;1.38;;
29452;SDS011;16424;50.956;5.320;2022-09-06T15:11:14;1.40;;;0.90;;
29452;SDS011;16424;50.956;5.320;2022-09-06T15:13:58;1.52;;;0.73;;
29452;SDS011;16424;50.956;5.320;2022-09-06T15:16:25;2.22;;;0.85;;
29452;SDS011;16424;50.956;5.320;2022-09-06T15:18:52;2.20;;;0.80;;
29452;SDS011;16424;50.956;5.320;2022-09-06T15:21:18;1.35;;;0.98;;
29452;SDS011;16424;50.956;5.320;2022-09-06T15:23:44;2.25;;;1.02;;
29452;SDS011;16424;50.956;5.320;2022-09-06T15:26:11;2.60;;;0.80;;
29452;SDS011;16424;50.956;5.320;2022-09-06T15:28:38;4.05;;;1.08;;
29452;SDS011;16424;50.956;5.320;2022-09-06T15:31:05;2.33;;;1.10;;
29452;SDS011;16424;50.956;5.320;2022-09-06T15:33:32;3.47;;;0.93;;
29452;SDS011;16424;50.956;5.320;2022-09-06T15:35:59;4.60;;;1.00;;
29452;SDS011;16424;50.956;5.320;2022-09-06T15:38:30;1.10;;;0.70;;
29452;SDS011;16424;50.956;5.320;2022-09-06T15:41:25;1.02;;;0.60;;
29452;SDS011;16424;50.956;5.320;2022-09-06T15:43:53;2.42;;;0.80;;
29452;SDS011;16424;50.956;5.320;2022-09-06T15:46:42;1.80;;;0.90;;
29452;SDS011;16424;50.956;5.320;2022-09-06T15:49:10;1.70;;;0.95;;
29452;SDS011;16424;50.956;5.320;2022-09-06T15:51:39;3.25;;;1.05;;
29452;SDS011;16424;50.956;5.320;2022-09-06T15:54:06;4.85;;;0.90;;
29452;SDS011;16424;50.956;5.320;2022-09-06T15:56:32;3.35;;;0.93;;
29452;SDS011;16424;50.956;5.320;2022-09-06T15:58:58;1.83;;;0.90;;
29452;SDS011;16424;50.956;5.320;2022-09-06T16:01:24;1.92;;;0.90;;
29452;SDS011;16424;50.956;5.320;2022-09-06T16:03:51;4.40;;;1.27;;
29452;SDS011;16424;50.956;5.320;2022-09-06T16:08:45;3.25;;;0.93;;
29452;SDS011;16424;50.956;5.320;2022-09-06T16:11:13;3.65;;;1.00;;
29452;SDS011;16424;50.956;5.320;2022-09-06T16:13:40;5.78;;;1.00;;
29452;SDS011;16424;50.956;5.320;2022-09-06T16:16:08;1.48;;;0.68;;
29452;SDS011;16424;50.956;5.320;2022-09-06T16:18:36;1.63;;;0.90;;
29452;SDS011;16424;50.956;5.320;2022-09-06T16:21:05;2.92;;;1.10;;
29452;SDS011;16424;50.956;5.320;2022-09-06T16:23:32;2.35;;;0.90;;
29452;SDS011;16424;50.956;5.320;2022-09-06T16:25:59;3.45;;;1.00;;
29452;SDS011;16424;50.956;5.320;2022-09-06T16:28:26;6.30;;;1.10;;
29452;SDS011;16424;50.956;5.320;2022-09-06T16:30:58;1.48;;;0.90;;
29452;SDS011;16424;50.956;5.320;2022-09-06T16:33:26;3.53;;;0.90;;
29452;SDS011;16424;50.956;5.320;2022-09-06T16:35:51;2.97;;;0.98;;
29452;SDS011;16424;50.956;5.320;2022-09-06T16:38:17;4.53;;;0.82;;
29452;SDS011;16424;50.956;5.320;2022-09-06T16:40:43;3.72;;;1.00;;
29452;SDS011;16424;50.956;5.320;2022-09-06T16:43:13;1.33;;;1.08;;
29452;SDS011;16424;50.956;5.320;2022-09-06T16:45:40;1.77;;;0.90;;
29452;SDS011;16424;50.956;5.320;2022-09-06T16:48:06;2.05;;;1.00;;
29452;SDS011;16424;50.956;5.320;2022-09-06T16:50:35;4.80;;;1.00;;